Time;durP1;ratioP1;P1;durP2;ratioP2;P2;SDS_P1;SDS_P2;PMS_P1;PMS_P2;Temp;Humidity;BMP_temperature;BMP_pressure;BME280_temperature;BME280_humidity;BME280_pressure;Samples;Min_cycle;Max_cycle;Signal;HPM_P1;HPM_P2
2022/10/08 00:00:45;;;;;;;5.60;1.70;;;13.10;99.90;;;;;;4981034;28;37899;-77
2022/10/08 00:03:18;;;;;;;13.38;2.28;;;13.10;99.90;;;;;;4967813;28;37945;-78
2022/10/08 00:06:02;;;;;;;;;;;13.10;99.90;;;;;;4964367;28;38341;-77
2022/10/08 00:08:30;;;;;;;7.78;1.88;;;13.10;99.90;;;;;;4962304;28;35640;-77
2022/10/08 00:11:00;;;;;;;8.73;1.42;;;13.10;99.90;;;;;;4958735;28;35722;-77
2022/10/08 00:13:27;;;;;;;11.27;1.77;;;13.10;99.90;;;;;;4984258;28;38884;-78
2022/10/08 00:15:55;;;;;;;9.05;1.92;;;13.10;99.90;;;;;;4973171;28;37452;-78
2022/10/08 00:18:22;;;;;;;12.38;2.05;;;13.10;99.90;;;;;;4985826;28;37878;-78
2022/10/08 00:20:48;;;;;;;10.48;2.00;;;13.10;99.90;;;;;;4966033;28;36000;-78
2022/10/08 00:23:15;;;;;;;7.75;1.95;;;13.10;99.90;;;;;;4962369;28;37943;-78
2022/10/08 00:25:43;;;;;;;10.43;1.95;;;13.10;99.90;;;;;;4977715;28;38327;-78
2022/10/08 00:28:12;;;;;;;8.30;1.67;;;13.10;99.90;;;;;;4966930;28;36723;-79
2022/10/08 00:30:40;;;;;;;9.85;2.05;;;13.10;99.90;;;;;;4963192;28;36844;-78
2022/10/08 00:33:08;;;;;;;9.27;1.67;;;13.20;99.90;;;;;;4981319;28;38685;-78
2022/10/08 00:35:39;;;;;;;7.68;2.17;;;13.20;99.90;;;;;;4974457;28;37387;-78
2022/10/08 00:38:06;;;;;;;7.25;1.60;;;13.20;99.90;;;;;;4968723;28;38144;-78
2022/10/08 00:40:50;;;;;;;9.10;1.80;;;13.20;99.90;;;;;;4987050;28;38253;-78
2022/10/08 00:43:16;;;;;;;5.78;1.77;;;13.20;99.90;;;;;;4969881;28;37786;-78
2022/10/08 00:45:46;;;;;;;13.45;2.00;;;13.20;99.90;;;;;;4978716;28;40075;-78
2022/10/08 00:48:19;;;;;;;5.88;1.20;;;13.30;99.90;;;;;;4975633;28;38417;-78
2022/10/08 00:50:46;;;;;;;13.27;2.30;;;13.20;99.90;;;;;;4967527;28;36362;-78
2022/10/08 00:53:12;;;;;;;4.65;1.25;;;13.20;99.90;;;;;;4966574;28;37941;-78
2022/10/08 00:55:40;;;;;;;16.50;2.15;;;13.30;99.90;;;;;;4985079;28;36712;-78
2022/10/08 00:58:19;;;;;;;13.77;1.88;;;13.30;99.90;;;;;;4985528;28;38191;-78
2022/10/08 01:03:22;;;;;;;16.98;2.13;;;13.20;99.90;;;;;;5179435;23;20058;-81
2022/10/08 01:06:14;;;;;;;11.82;1.88;;;13.20;99.90;;;;;;4989990;28;39624;-80
2022/10/08 01:08:56;;;;;;;9.23;1.95;;;13.20;99.90;;;;;;5005546;28;49172;-82
2022/10/08 01:11:45;;;;;;;9.88;2.05;;;13.10;99.90;;;;;;5013299;28;37461;-81
2022/10/08 01:14:45;;;;;;;9.30;2.30;;;13.10;99.90;;;;;;5009665;28;39063;-81
2022/10/08 01:17:39;;;;;;;11.75;2.00;;;13.10;99.90;;;;;;4995308;28;37691;-81
2022/10/08 01:20:30;;;;;;;7.05;2.50;;;13.10;99.90;;;;;;4992903;28;37200;-81
2022/10/08 01:23:08;;;;;;;9.98;1.98;;;13.10;99.90;;;;;;5014186;28;39042;-81
2022/10/08 01:25:54;;;;;;;8.73;2.03;;;13.10;99.90;;;;;;4996326;28;47151;-81
2022/10/08 01:31:20;;;;;;;12.25;2.30;;;13.00;99.90;;;;;;5028030;28;20039;-80
2022/10/08 01:34:12;;;;;;;12.10;2.05;;;13.00;99.90;;;;;;5012332;28;36835;-80
2022/10/08 01:36:47;;;;;;;11.77;2.00;;;13.00;99.90;;;;;;5014177;28;47996;-81
2022/10/08 01:39:18;;;;;;;8.63;1.92;;;12.90;99.90;;;;;;5027929;28;39044;-80
2022/10/08 01:41:50;;;;;;;11.43;1.88;;;13.00;99.90;;;;;;5008931;28;38193;-80
2022/10/08 01:44:28;;;;;;;9.10;1.80;;;13.00;99.90;;;;;;5013075;28;37572;-79
2022/10/08 01:47:07;;;;;;;8.93;1.85;;;13.00;99.90;;;;;;5023034;28;38763;-81
2022/10/08 01:49:55;;;;;;;12.27;2.08;;;12.90;99.90;;;;;;4998414;28;48128;-81
2022/10/08 01:52:30;;;;;;;11.48;2.08;;;12.90;99.90;;;;;;5023494;28;38443;-80
2022/10/08 01:55:08;;;;;;;9.20;2.30;;;12.90;99.90;;;;;;5028651;28;36019;-80
2022/10/08 01:57:36;;;;;;;9.00;1.98;;;12.80;99.90;;;;;;5017580;28;47512;-80
2022/10/08 02:00:27;;;;;;;11.32;2.63;;;12.80;99.90;;;;;;5007035;28;39776;-81
2022/10/08 02:02:54;;;;;;;8.05;1.70;;;12.80;99.90;;;;;;5026639;28;49907;-80
2022/10/08 02:05:25;;;;;;;8.48;2.00;;;12.70;99.90;;;;;;5005846;28;35874;-80
2022/10/08 02:07:57;;;;;;;7.68;1.90;;;12.70;99.90;;;;;;5007709;28;37807;-80
2022/10/08 02:10:27;;;;;;;10.73;1.98;;;12.70;99.90;;;;;;5023702;28;39157;-80
2022/10/08 02:12:53;;;;;;;7.45;2.15;;;12.70;99.90;;;;;;5020897;28;38643;-80
2022/10/08 02:15:22;;;;;;;14.15;2.47;;;12.70;99.90;;;;;;5002732;28;36763;-81
2022/10/08 02:18:05;;;;;;;14.32;2.20;;;12.70;99.90;;;;;;5002409;28;38299;-80
2022/10/08 02:21:05;;;;;;;9.85;2.13;;;12.70;99.90;;;;;;5019551;28;48986;-80
2022/10/08 02:23:40;;;;;;;9.90;2.53;;;12.60;99.90;;;;;;5024225;28;47670;-80
2022/10/08 02:26:18;;;;;;;11.93;2.10;;;12.60;99.90;;;;;;5025249;28;37743;-81
2022/10/08 02:28:48;;;;;;;13.80;2.67;;;12.50;99.90;;;;;;4987646;28;38156;-79
2022/10/08 02:31:44;;;;;;;10.80;2.70;;;12.50;99.90;;;;;;5009914;28;37531;-80
2022/10/08 02:34:20;;;;;;;8.85;2.10;;;12.40;99.90;;;;;;4981358;28;37143;-80
2022/10/08 02:36:56;;;;;;;12.93;2.40;;;12.30;99.90;;;;;;4984398;28;38218;-80
2022/10/08 02:39:36;;;;;;;8.73;2.00;;;12.30;99.90;;;;;;4982631;28;39443;-80
2022/10/08 02:42:09;;;;;;;9.23;1.90;;;12.20;99.90;;;;;;4984787;28;38163;-79
2022/10/08 02:45:18;;;;;;;8.90;2.22;;;12.20;99.90;;;;;;4976169;28;48207;-80
2022/10/08 02:47:51;;;;;;;11.45;2.30;;;12.10;99.90;;;;;;4984800;28;48457;-80
2022/10/08 02:50:27;;;;;;;9.10;2.17;;;12.10;99.90;;;;;;4980049;28;38882;-79
2022/10/08 02:52:58;;;;;;;15.30;2.67;;;12.10;99.90;;;;;;5000880;28;37399;-80
2022/10/08 02:55:42;;;;;;;12.18;1.95;;;12.00;99.90;;;;;;4986528;28;38221;-80
2022/10/08 02:58:12;;;;;;;15.50;2.42;;;12.00;99.90;;;;;;4993445;28;38619;-80
2022/10/08 03:00:49;;;;;;;15.55;2.20;;;11.90;99.90;;;;;;4980858;28;40177;-80
2022/10/08 03:03:47;;;;;;;18.52;3.10;;;11.90;99.90;;;;;;5001090;28;41001;-80
2022/10/08 03:06:17;;;;;;;19.35;2.55;;;11.90;99.90;;;;;;4975868;28;38375;-80
2022/10/08 03:08:49;;;;;;;14.05;2.67;;;11.90;99.90;;;;;;4991270;28;36705;-80
2022/10/08 03:11:17;;;;;;;17.30;2.40;;;11.90;99.90;;;;;;4986323;28;37467;-80
2022/10/08 03:13:47;;;;;;;12.02;2.70;;;11.80;99.90;;;;;;4985929;28;40851;-79
2022/10/08 03:16:20;;;;;;;12.07;2.55;;;11.90;99.90;;;;;;4995327;28;38486;-79
2022/10/08 03:18:47;;;;;;;9.40;2.25;;;11.80;99.90;;;;;;4996496;28;35649;-81
2022/10/08 03:21:17;;;;;;;19.17;2.45;;;11.80;99.90;;;;;;4985381;28;37698;-81
2022/10/08 03:23:44;;;;;;;17.55;3.33;;;11.80;99.90;;;;;;5010613;28;40223;-80
2022/10/08 03:26:14;;;;;;;22.27;3.22;;;11.80;99.90;;;;;;4984406;28;38231;-80
2022/10/08 03:28:42;;;;;;;10.63;2.30;;;11.70;99.90;;;;;;4977364;28;37041;-80
2022/10/08 03:31:08;;;;;;;9.15;2.30;;;11.80;99.90;;;;;;5011665;28;39353;-80
2022/10/08 03:33:37;;;;;;;13.10;2.53;;;11.80;99.90;;;;;;5010152;28;38634;-80
2022/10/08 03:36:05;;;;;;;12.55;2.42;;;11.80;99.90;;;;;;5007965;28;38510;-80
2022/10/08 03:38:33;;;;;;;11.73;2.95;;;11.80;99.90;;;;;;5006037;28;48557;-81
2022/10/08 03:41:00;;;;;;;12.18;2.30;;;11.80;99.90;;;;;;5009789;28;38844;-81
2022/10/08 03:43:32;;;;;;;14.18;2.60;;;11.90;99.90;;;;;;5008847;28;38365;-79
2022/10/08 03:45:59;;;;;;;8.70;1.73;;;11.90;99.90;;;;;;5004300;28;37578;-79
2022/10/08 03:48:26;;;;;;;12.88;2.80;;;11.90;99.90;;;;;;5009661;28;36715;-80
2022/10/08 03:50:56;;;;;;;13.07;2.88;;;11.90;99.90;;;;;;5015564;28;40154;-80
2022/10/08 03:53:23;;;;;;;11.73;2.08;;;11.90;99.90;;;;;;5009940;28;37735;-80
2022/10/08 03:55:56;;;;;;;13.20;2.05;;;11.90;99.90;;;;;;5026225;28;37268;-80
2022/10/08 03:58:33;;;;;;;17.45;3.17;;;11.90;99.90;;;;;;5006138;28;36578;-80
2022/10/08 04:01:11;;;;;;;12.55;2.92;;;11.80;99.90;;;;;;5026106;28;40329;-79
2022/10/08 04:03:38;;;;;;;12.95;2.28;;;11.80;99.90;;;;;;5011778;28;48438;-80
2022/10/08 04:06:05;;;;;;;9.98;1.90;;;11.70;99.90;;;;;;5024077;28;38429;-81
2022/10/08 04:08:33;;;;;;;7.85;1.65;;;11.70;99.90;;;;;;5029852;28;48287;-80
2022/10/08 04:11:08;;;;;;;7.07;1.80;;;11.70;99.90;;;;;;5004837;28;37985;-80
2022/10/08 04:13:38;;;;;;;13.00;1.92;;;11.70;99.90;;;;;;5019474;28;48084;-80
2022/10/08 04:16:10;;;;;;;10.82;2.05;;;11.70;99.90;;;;;;5016019;28;38083;-80
2022/10/08 04:18:43;;;;;;;11.68;1.80;;;11.70;99.90;;;;;;5002016;28;48538;-80
2022/10/08 04:21:13;;;;;;;11.35;2.08;;;11.80;99.90;;;;;;4999817;28;38639;-81
2022/10/08 04:23:41;;;;;;;14.63;2.25;;;11.80;99.90;;;;;;5014806;28;38498;-80
2022/10/08 04:26:09;;;;;;;13.20;2.00;;;11.80;99.90;;;;;;5015366;28;37857;-80
2022/10/08 04:28:39;;;;;;;12.35;1.50;;;11.80;99.90;;;;;;5018832;28;36089;-79
2022/10/08 04:31:11;;;;;;;11.55;1.67;;;11.80;99.90;;;;;;5018567;28;39512;-80
2022/10/08 04:33:48;;;;;;;11.88;2.15;;;11.80;99.90;;;;;;5034849;28;39313;-79
2022/10/08 04:36:17;;;;;;;12.85;2.13;;;11.80;99.90;;;;;;5036898;28;38728;-80
2022/10/08 04:38:47;;;;;;;11.95;1.90;;;11.80;99.90;;;;;;5016615;28;36415;-80
2022/10/08 04:41:14;;;;;;;10.60;1.85;;;11.80;99.90;;;;;;5025598;28;39667;-80
2022/10/08 04:43:42;;;;;;;11.05;1.80;;;11.80;99.90;;;;;;5013354;28;38011;-81
2022/10/08 04:46:12;;;;;;;10.10;1.40;;;11.80;99.90;;;;;;5016255;28;38115;-81
2022/10/08 04:48:58;;;;;;;7.07;1.55;;;11.80;99.90;;;;;;5031584;28;36100;-80
2022/10/08 04:51:26;;;;;;;10.82;2.35;;;11.80;99.90;;;;;;5019876;28;40110;-80
2022/10/08 04:53:57;;;;;;;12.50;1.38;;;11.70;99.90;;;;;;5017224;28;39270;-81
2022/10/08 04:56:27;;;;;;;18.77;2.53;;;11.70;99.90;;;;;;5005195;28;37083;-80
2022/10/08 04:58:56;;;;;;;7.47;2.17;;;11.70;99.90;;;;;;5017364;28;36992;-80
2022/10/08 05:01:23;;;;;;;9.13;1.83;;;11.70;99.90;;;;;;5017126;28;40943;-79
2022/10/08 05:03:53;;;;;;;8.75;1.67;;;11.80;99.90;;;;;;5025350;28;37221;-80
2022/10/08 05:06:22;;;;;;;15.10;2.05;;;11.80;99.90;;;;;;5028602;28;38772;-81
2022/10/08 05:08:53;;;;;;;15.50;1.77;;;11.80;99.90;;;;;;5032943;28;37705;-81
2022/10/08 05:11:25;;;;;;;8.65;1.30;;;11.70;99.90;;;;;;5015307;28;37715;-80
2022/10/08 05:13:54;;;;;;;16.15;1.88;;;11.70;99.90;;;;;;5018395;28;37679;-80
2022/10/08 05:16:21;;;;;;;17.45;2.20;;;11.60;99.90;;;;;;5029785;28;38005;-81
2022/10/08 05:18:50;;;;;;;6.70;1.10;;;11.60;99.90;;;;;;5009301;28;37208;-82
2022/10/08 05:21:23;;;;;;;11.73;1.73;;;11.70;99.90;;;;;;5011216;28;39745;-82
2022/10/08 05:24:05;;;;;;;5.85;1.48;;;11.70;99.90;;;;;;5010417;28;39822;-81
2022/10/08 05:26:36;;;;;;;12.32;1.48;;;11.80;99.90;;;;;;5010435;28;47637;-82
2022/10/08 05:29:03;;;;;;;8.40;1.38;;;11.80;99.90;;;;;;5020693;28;37205;-80
2022/10/08 05:31:37;;;;;;;10.93;1.40;;;11.80;99.90;;;;;;5027977;28;48631;-81
2022/10/08 05:34:05;;;;;;;9.10;1.30;;;11.80;99.90;;;;;;5012506;28;38686;-80
2022/10/08 05:36:34;;;;;;;7.40;1.77;;;11.80;99.90;;;;;;5016442;28;37092;-81
2022/10/08 05:39:06;;;;;;;15.40;1.67;;;11.80;99.90;;;;;;5014577;28;36739;-80
2022/10/08 05:41:36;;;;;;;8.30;1.40;;;11.70;99.90;;;;;;5029391;28;48815;-80
2022/10/08 05:44:05;;;;;;;7.28;1.25;;;11.60;99.90;;;;;;5018047;28;40216;-80
2022/10/08 05:46:34;;;;;;;9.95;1.58;;;11.50;99.90;;;;;;5022391;28;49594;-80
2022/10/08 05:49:04;;;;;;;12.95;1.50;;;11.50;99.90;;;;;;5022409;28;36315;-81
2022/10/08 05:51:31;;;;;;;4.07;1.08;;;11.50;99.90;;;;;;5009628;28;48587;-81
2022/10/08 05:54:08;;;;;;;14.63;1.40;;;11.50;99.90;;;;;;5011673;28;39178;-80
2022/10/08 05:56:35;;;;;;;8.43;1.50;;;11.50;99.90;;;;;;4984068;28;47619;-81
2022/10/08 05:59:02;;;;;;;6.35;1.00;;;11.50;99.90;;;;;;5015613;28;37986;-80
2022/10/08 06:01:31;;;;;;;8.32;1.48;;;11.50;99.90;;;;;;4990197;28;38827;-79
2022/10/08 06:04:09;;;;;;;9.52;1.38;;;11.50;99.90;;;;;;5031358;28;37815;-80
2022/10/08 06:06:43;;;;;;;5.85;1.08;;;11.50;99.90;;;;;;5006098;28;47939;-81
2022/10/08 06:09:17;;;;;;;10.35;1.98;;;11.50;99.90;;;;;;5008586;28;35970;-82
2022/10/08 06:12:07;;;;;;;9.32;1.13;;;11.50;99.90;;;;;;5006287;28;39483;-81
2022/10/08 06:14:33;;;;;;;12.18;1.77;;;11.50;99.90;;;;;;5025670;28;48629;-80
2022/10/08 06:17:01;;;;;;;13.35;1.70;;;11.50;99.90;;;;;;5022920;28;39732;-81
2022/10/08 06:19:27;;;;;;;5.88;1.55;;;11.50;99.90;;;;;;5032422;28;38093;-81
2022/10/08 06:21:53;;;;;;;10.40;1.58;;;11.50;99.90;;;;;;5016515;28;37733;-81
2022/10/08 06:24:22;;;;;;;7.85;1.30;;;11.60;99.90;;;;;;5017219;28;39797;-81
2022/10/08 06:26:48;;;;;;;9.38;1.58;;;11.70;99.90;;;;;;5017503;28;38574;-81
2022/10/08 06:29:33;;;;;;;11.57;2.28;;;11.70;99.90;;;;;;5015122;28;36430;-81
2022/10/08 06:32:06;;;;;;;7.45;1.40;;;11.70;99.90;;;;;;5193064;23;38484;-82
2022/10/08 06:34:34;;;;;;;9.85;1.60;;;11.70;99.90;;;;;;5019882;28;49119;-81
2022/10/08 06:37:03;;;;;;;6.72;1.85;;;11.70;99.90;;;;;;4999921;28;38267;-81
2022/10/08 06:39:29;;;;;;;11.93;1.50;;;11.70;99.90;;;;;;5005031;28;48220;-81
2022/10/08 06:41:56;;;;;;;6.13;1.30;;;11.70;99.90;;;;;;4997987;28;39267;-82
2022/10/08 06:44:23;;;;;;;10.50;1.63;;;11.70;99.90;;;;;;5021078;28;39168;-81
2022/10/08 06:46:49;;;;;;;9.18;1.20;;;11.80;99.90;;;;;;5000081;28;38992;-81
2022/10/08 06:49:17;;;;;;;9.77;1.73;;;11.80;99.90;;;;;;4998728;28;37385;-80
2022/10/08 06:51:43;;;;;;;6.72;1.27;;;11.80;99.90;;;;;;4999021;28;38968;-81
2022/10/08 06:54:10;;;;;;;8.38;1.60;;;11.80;99.90;;;;;;4994422;28;38520;-80
2022/10/08 06:56:37;;;;;;;5.90;1.33;;;12.10;99.90;;;;;;5007127;28;37087;-81
2022/10/08 06:59:05;;;;;;;9.02;1.75;;;12.10;99.90;;;;;;5008026;28;37338;-81
2022/10/08 07:01:34;;;;;;;5.75;1.17;;;12.10;99.90;;;;;;5002358;28;47399;-79
2022/10/08 07:04:05;;;;;;;9.52;1.30;;;12.20;99.90;;;;;;5003046;28;37666;-81
2022/10/08 07:06:32;;;;;;;9.27;1.13;;;12.10;99.90;;;;;;4995367;28;48548;-82
2022/10/08 07:09:00;;;;;;;6.10;1.08;;;12.10;99.90;;;;;;4996339;28;37342;-81
2022/10/08 07:11:27;;;;;;;6.00;1.30;;;12.10;99.90;;;;;;4972232;28;38892;-80
2022/10/08 07:13:57;;;;;;;7.30;1.60;;;12.10;99.90;;;;;;4990937;28;37299;-82
2022/10/08 07:16:29;;;;;;;9.50;1.60;;;12.10;99.90;;;;;;4996137;28;37893;-80
2022/10/08 07:18:59;;;;;;;;;;;12.20;99.90;;;;;;5001088;28;36201;-79
2022/10/08 07:21:39;;;;;;;10.80;1.70;;;12.30;99.90;;;;;;4982715;28;42085;-81
2022/10/08 07:24:08;;;;;;;11.02;1.50;;;12.40;99.90;;;;;;4993912;28;39145;-85
2022/10/08 07:26:39;;;;;;;6.53;1.10;;;12.40;99.90;;;;;;4990180;28;38570;-80
2022/10/08 07:35:28;;;;;;;9.75;1.65;;;12.70;99.90;;;;;;5329775;22;9135532;-81
2022/10/08 07:40:38;;;;;;;13.30;1.58;;;13.10;99.90;;;;;;5581404;23;20067;-80
2022/10/08 07:43:54;;;;;;;7.10;1.55;;;13.20;99.90;;;;;;4993062;28;38593;-82
2022/10/08 07:46:50;;;;;;;8.07;1.40;;;13.20;99.90;;;;;;4995477;28;39608;-80
2022/10/08 07:51:56;;;;;;;8.32;1.60;;;13.10;99.90;;;;;;6080946;23;20022;-82
2022/10/08 08:15:25;;;;;;;6.90;0.98;;;13.00;99.90;;;;;;5375615;23;20441;-77
2022/10/08 08:17:51;;;;;;;8.05;1.77;;;13.00;99.90;;;;;;5024909;28;39136;-77
2022/10/08 08:20:17;;;;;;;12.43;2.47;;;13.10;99.90;;;;;;5028870;28;39471;-77
2022/10/08 08:22:43;;;;;;;8.55;1.30;;;13.30;99.90;;;;;;5024854;28;37913;-77
2022/10/08 08:25:09;;;;;;;6.93;1.33;;;13.30;99.90;;;;;;5009891;28;36440;-77
2022/10/08 08:27:35;;;;;;;11.15;1.58;;;13.40;99.90;;;;;;5012410;28;37810;-77
2022/10/08 08:30:04;;;;;;;8.27;1.23;;;13.50;99.90;;;;;;5026576;28;39054;-78
2022/10/08 08:32:31;;;;;;;8.05;1.40;;;13.60;99.90;;;;;;5021352;28;48975;-76
2022/10/08 08:34:57;;;;;;;18.55;1.80;;;13.70;99.90;;;;;;5025720;28;38159;-75
2022/10/08 08:37:23;;;;;;;6.55;1.10;;;13.60;99.90;;;;;;5004043;28;38387;-75
2022/10/08 08:39:50;;;;;;;4.35;0.93;;;13.70;99.90;;;;;;5021795;28;38957;-77
2022/10/08 08:42:19;;;;;;;9.20;1.63;;;13.80;99.90;;;;;;5009531;28;37011;-76
2022/10/08 08:45:03;;;;;;;8.38;1.77;;;13.80;99.90;;;;;;5023176;28;38167;-77
2022/10/08 08:47:38;;;;;;;10.38;1.60;;;13.80;99.90;;;;;;5003339;28;39534;-77
2022/10/08 08:50:13;;;;;;;5.78;1.33;;;13.80;99.90;;;;;;4994133;28;37231;-76
2022/10/08 08:52:41;;;;;;;8.30;1.35;;;13.70;99.90;;;;;;5025672;28;37593;-77
2022/10/08 08:55:15;;;;;;;8.25;1.75;;;13.70;99.90;;;;;;5004540;28;35922;-77
2022/10/08 08:58:02;;;;;;;4.70;1.00;;;13.70;99.90;;;;;;5008712;28;37638;-77
2022/10/08 09:00:38;;;;;;;8.30;1.38;;;13.70;99.90;;;;;;5008317;28;39922;-77
2022/10/08 09:03:15;;;;;;;8.77;1.20;;;13.80;99.90;;;;;;5026472;28;37934;-77
2022/10/08 09:05:44;;;;;;;7.85;1.48;;;13.90;99.90;;;;;;5018918;28;37440;-76
2022/10/08 09:08:16;;;;;;;12.23;1.45;;;14.00;99.90;;;;;;5009331;28;37564;-78
2022/10/08 09:10:58;;;;;;;6.53;1.45;;;14.00;99.90;;;;;;5009030;28;37366;-76
2022/10/08 09:13:30;;;;;;;7.93;1.50;;;14.00;99.90;;;;;;5006584;28;39807;-77
2022/10/08 09:15:57;;;;;;;7.35;1.13;;;13.90;99.90;;;;;;5005926;28;34927;-76
2022/10/08 09:18:23;;;;;;;12.77;2.05;;;13.90;99.90;;;;;;5004856;28;39119;-76
2022/10/08 09:20:49;;;;;;;10.18;1.60;;;13.80;99.90;;;;;;5005939;28;38461;-77
2022/10/08 09:23:22;;;;;;;7.03;1.60;;;13.80;99.90;;;;;;5018387;28;38983;-77
2022/10/08 09:26:08;;;;;;;6.20;1.30;;;14.00;99.90;;;;;;5021153;28;37022;-78
2022/10/08 09:28:45;;;;;;;7.43;1.20;;;14.20;99.90;;;;;;5004351;28;46173;-78
2022/10/08 09:31:25;;;;;;;8.30;1.40;;;14.30;99.90;;;;;;5020622;28;38168;-76
2022/10/08 09:33:54;;;;;;;6.30;1.30;;;14.40;99.90;;;;;;5026171;28;38243;-78
2022/10/08 09:36:41;;;;;;;8.98;1.48;;;14.40;99.90;;;;;;5007543;28;36003;-79
2022/10/08 09:39:20;;;;;;;9.68;2.35;;;14.40;99.90;;;;;;5007639;28;37161;-79
2022/10/08 09:42:02;;;;;;;11.45;1.67;;;14.20;99.90;;;;;;5020887;28;38046;-78
2022/10/08 09:44:47;;;;;;;6.60;1.13;;;14.00;99.90;;;;;;5005851;28;46897;-80
2022/10/08 09:47:15;;;;;;;5.45;1.30;;;14.00;99.90;;;;;;5023567;28;37877;-80
2022/10/08 09:49:43;;;;;;;7.82;1.42;;;14.00;99.90;;;;;;5005353;28;39914;-80
2022/10/08 09:52:22;;;;;;;9.75;1.23;;;14.30;99.90;;;;;;5003097;28;38972;-80
2022/10/08 09:54:56;;;;;;;9.43;1.20;;;14.70;99.90;;;;;;5015486;28;38697;-81
2022/10/08 09:57:22;;;;;;;6.22;1.13;;;15.10;99.90;;;;;;5003651;28;36796;-79
2022/10/08 10:00:03;;;;;;;4.15;1.02;;;15.30;99.90;;;;;;4999015;28;39698;-81
2022/10/08 10:02:37;;;;;;;8.02;1.63;;;15.20;99.90;;;;;;5021543;28;38780;-81
2022/10/08 10:05:06;;;;;;;8.80;1.23;;;14.90;99.90;;;;;;5006638;28;39128;-80
2022/10/08 10:07:51;;;;;;;5.20;1.33;;;14.70;99.90;;;;;;5021683;28;48176;-79
2022/10/08 10:10:40;;;;;;;8.27;1.20;;;14.50;99.90;;;;;;5021547;28;39169;-79
2022/10/08 10:13:30;;;;;;;6.03;1.40;;;14.50;99.90;;;;;;5022650;28;38304;-80
2022/10/08 10:16:03;;;;;;;12.10;1.60;;;14.90;99.90;;;;;;5022359;28;38278;-79
2022/10/08 10:18:47;;;;;;;5.38;1.17;;;15.20;99.90;;;;;;5000188;28;38120;-79
2022/10/08 10:21:18;;;;;;;6.90;1.45;;;15.30;99.90;;;;;;5014298;28;39691;-80
2022/10/08 10:24:16;;;;;;;8.00;1.50;;;15.20;99.90;;;;;;5020630;28;38272;-79
2022/10/08 10:26:43;;;;;;;7.70;1.17;;;15.00;99.90;;;;;;4993641;28;47278;-80
2022/10/08 10:29:16;;;;;;;9.90;1.50;;;14.90;99.90;;;;;;4999068;28;38987;-79
2022/10/08 10:31:49;;;;;;;7.85;1.30;;;14.90;99.90;;;;;;5014963;28;38415;-80
2022/10/08 10:34:25;;;;;;;8.55;1.38;;;15.10;99.90;;;;;;4999797;28;37836;-79
2022/10/08 10:36:56;;;;;;;5.28;1.23;;;15.20;99.90;;;;;;5002878;28;38182;-80
2022/10/08 10:39:26;;;;;;;7.28;1.27;;;15.10;99.90;;;;;;5005550;28;37605;-79
2022/10/08 10:42:17;;;;;;;5.78;1.00;;;15.10;99.90;;;;;;5002292;28;40656;-82
2022/10/08 10:44:43;;;;;;;5.93;1.45;;;14.90;99.90;;;;;;5021470;28;48348;-82
2022/10/08 10:47:10;;;;;;;7.47;1.40;;;14.80;99.90;;;;;;5019619;28;38807;-82
2022/10/08 10:49:40;;;;;;;4.80;1.20;;;14.70;99.90;;;;;;5018941;28;37169;-85
2022/10/08 10:52:15;;;;;;;9.07;1.65;;;14.80;99.90;;;;;;4999874;28;40436;-85
2022/10/08 10:55:07;;;;;;;6.50;1.45;;;15.00;99.90;;;;;;4998795;28;39771;-86
2022/10/08 10:57:51;;;;;;;8.98;1.30;;;15.50;99.90;;;;;;4998721;28;47119;-83
2022/10/08 11:00:21;;;;;;;8.27;1.25;;;15.90;99.90;;;;;;5003186;28;37917;-85
2022/10/08 11:03:01;;;;;;;5.82;1.30;;;16.30;99.90;;;;;;5026604;28;39314;-86
2022/10/08 11:05:33;;;;;;;11.82;2.58;;;16.60;99.90;;;;;;5020519;28;47136;-85
2022/10/08 11:08:18;;;;;;;5.28;1.15;;;16.50;99.90;;;;;;5003759;28;38157;-81
2022/10/08 11:11:03;;;;;;;8.95;1.90;;;16.40;99.90;;;;;;5003848;28;47703;-80
2022/10/08 11:13:55;;;;;;;6.47;1.27;;;15.90;99.90;;;;;;5013202;28;39755;-80
2022/10/08 11:16:42;;;;;;;12.35;1.40;;;15.80;99.90;;;;;;5017283;28;38097;-80
2022/10/08 11:19:45;;;;;;;7.35;1.20;;;15.60;99.90;;;;;;4987263;28;37705;-81
2022/10/08 11:22:11;;;;;;;4.35;1.30;;;15.50;99.90;;;;;;5018313;28;37643;-82
2022/10/08 11:24:43;;;;;;;10.02;1.60;;;15.80;99.90;;;;;;5014246;28;39607;-82
2022/10/08 11:27:30;;;;;;;8.23;1.40;;;16.30;99.90;;;;;;5018245;28;38254;-82
2022/10/08 11:30:16;;;;;;;9.52;1.50;;;16.70;99.90;;;;;;5020003;28;39092;-82
2022/10/08 11:32:48;;;;;;;7.25;1.30;;;17.00;99.90;;;;;;5000004;28;47247;-80
2022/10/08 11:35:32;;;;;;;;;;;17.10;99.90;;;;;;5021177;28;37374;-81
2022/10/08 11:38:16;;;;;;;;;;;17.20;99.90;;;;;;5003804;28;37459;-83
2022/10/08 11:40:54;;;;;;;5.65;1.40;;;17.40;99.90;;;;;;5012044;28;48903;-81
2022/10/08 11:43:38;;;;;;;7.35;1.60;;;17.20;99.90;;;;;;5001856;28;36711;-80
2022/10/08 11:46:30;;;;;;;7.72;1.75;;;17.00;99.90;;;;;;5004948;28;39250;-82
2022/10/08 11:49:01;;;;;;;6.00;1.40;;;17.10;99.90;;;;;;5006655;28;47270;-83
2022/10/08 11:51:33;;;;;;;6.68;1.20;;;17.20;99.90;;;;;;5005048;28;46616;-80
2022/10/08 11:54:27;;;;;;;5.95;1.48;;;17.20;99.90;;;;;;5020195;28;37667;-81
2022/10/08 11:57:21;;;;;;;9.50;1.65;;;17.40;99.90;;;;;;5004545;28;47362;-82
2022/10/08 11:59:58;;;;;;;5.85;1.35;;;17.60;99.90;;;;;;5020813;28;46899;-79
2022/10/08 12:02:37;;;;;;;12.80;1.48;;;17.50;99.90;;;;;;5018107;28;38604;-82
2022/10/08 12:05:29;;;;;;;8.48;1.33;;;17.50;99.90;;;;;;5022969;28;38179;-79
2022/10/08 12:07:57;;;;;;;5.93;1.25;;;17.40;99.90;;;;;;5021109;28;47482;-80
2022/10/08 12:10:36;;;;;;;8.77;1.75;;;17.50;99.90;;;;;;5008712;28;41284;-81
2022/10/08 12:13:27;;;;;;;10.05;1.50;;;17.70;99.90;;;;;;5005183;28;37213;-79
2022/10/08 12:15:54;;;;;;;7.53;1.40;;;17.50;99.90;;;;;;5006871;28;48866;-80
2022/10/08 12:18:24;;;;;;;8.75;1.30;;;17.30;99.90;;;;;;4997240;28;38016;-81
2022/10/08 12:21:14;;;;;;;7.22;1.58;;;17.20;99.90;;;;;;5007143;28;41277;-80
2022/10/08 12:23:42;;;;;;;11.85;2.05;;;17.40;99.90;;;;;;5021580;28;48357;-80
2022/10/08 12:26:11;;;;;;;7.47;1.33;;;17.70;99.90;;;;;;5021604;28;37391;-80
2022/10/08 12:28:49;;;;;;;3.58;0.90;;;17.70;99.90;;;;;;5029513;28;38091;-81
2022/10/08 12:31:38;;;;;;;8.40;1.20;;;17.50;99.90;;;;;;5003891;28;38661;-81
2022/10/08 12:34:16;;;;;;;7.88;1.00;;;17.40;99.90;;;;;;5011051;28;36870;-80
2022/10/08 12:37:01;;;;;;;11.60;1.60;;;17.40;99.90;;;;;;5007066;28;36605;-81
2022/10/08 12:39:42;;;;;;;7.90;1.48;;;17.30;99.90;;;;;;5012447;28;40060;-82
2022/10/08 12:42:26;;;;;;;5.18;1.45;;;17.30;99.90;;;;;;5025385;28;38882;-82
2022/10/08 12:45:12;;;;;;;4.88;0.93;;;17.40;99.90;;;;;;5031453;28;37380;-81
2022/10/08 12:47:50;;;;;;;3.35;0.85;;;17.70;99.90;;;;;;5011558;28;47073;-80
2022/10/08 12:50:53;;;;;;;6.13;1.10;;;17.80;99.90;;;;;;5009868;28;37414;-80
2022/10/08 12:53:20;;;;;;;6.82;1.38;;;17.70;99.90;;;;;;5025910;28;39268;-82
2022/10/08 12:55:54;;;;;;;9.93;1.48;;;17.80;99.90;;;;;;5030821;28;37759;-80
2022/10/08 12:58:25;;;;;;;5.35;1.10;;;17.90;99.90;;;;;;5005253;28;36299;-81
2022/10/08 13:00:58;;;;;;;7.28;1.30;;;18.00;99.90;;;;;;5012301;28;37736;-80
2022/10/08 13:03:24;;;;;;;9.13;1.30;;;18.10;99.90;;;;;;5028172;28;38491;-78
2022/10/08 13:05:54;;;;;;;9.52;1.52;;;18.10;99.90;;;;;;5013269;28;36875;-78
2022/10/08 13:08:29;;;;;;;6.38;1.20;;;18.00;99.90;;;;;;5029276;28;37454;-79
2022/10/08 13:10:57;;;;;;;7.55;1.13;;;17.90;99.90;;;;;;5030259;28;38508;-78
2022/10/08 13:13:49;;;;;;;7.82;1.10;;;17.70;99.90;;;;;;5011381;28;38555;-78
2022/10/08 13:16:21;;;;;;;5.68;1.25;;;17.40;99.90;;;;;;5002408;28;38538;-81
2022/10/08 13:18:53;;;;;;;4.35;0.77;;;17.10;99.90;;;;;;5029606;28;37351;-79
2022/10/08 13:21:31;;;;;;;12.53;1.70;;;17.10;99.90;;;;;;5006154;28;39546;-81
2022/10/08 13:23:58;;;;;;;7.88;1.08;;;17.10;99.90;;;;;;5005110;28;38447;-81
2022/10/08 13:26:38;;;;;;;11.57;1.30;;;17.10;99.90;;;;;;5023183;28;39299;-81
2022/10/08 13:29:22;;;;;;;7.25;1.20;;;17.30;99.90;;;;;;5002788;28;38870;-80
2022/10/08 13:32:04;;;;;;;6.85;1.73;;;17.40;99.90;;;;;;5005081;28;40077;-81
2022/10/08 13:34:39;;;;;;;9.27;1.40;;;17.30;99.90;;;;;;5011560;28;47224;-79
2022/10/08 13:37:13;;;;;;;6.15;1.48;;;17.30;99.90;;;;;;5014788;28;36985;-80
2022/10/08 13:40:11;;;;;;;7.88;1.13;;;17.40;99.90;;;;;;5008602;28;38278;-80
2022/10/08 13:42:47;;;;;;;7.93;1.27;;;17.50;99.90;;;;;;4968918;28;47052;-81
2022/10/08 13:45:21;;;;;;;6.50;1.15;;;17.60;99.90;;;;;;5003452;28;39976;-81
2022/10/08 13:47:48;;;;;;;4.05;1.20;;;17.80;99.90;;;;;;5023942;28;38688;-79
2022/10/08 13:50:15;;;;;;;6.00;1.38;;;17.80;99.90;;;;;;5019921;28;37385;-79
2022/10/08 13:52:53;;;;;;;5.57;1.20;;;17.70;99.90;;;;;;5013439;28;39608;-78
2022/10/08 13:55:30;;;;;;;8.32;1.08;;;17.40;99.90;;;;;;5020078;28;38619;-80
2022/10/08 13:58:01;;;;;;;7.00;1.10;;;17.10;99.90;;;;;;5025777;28;36894;-83
2022/10/08 14:00:28;;;;;;;6.63;1.58;;;16.80;99.90;;;;;;5004712;28;38886;-83